Airfield :
LOGIN :

Register | Disclaimer

   EN    FR    IT 

 










Legend :    VFR   Marginal VFR   IFR   Intensive IFR   Very Intensive IFR
Visi :
Ceiling :
>= 8 km
>= 3000ft
5 to 8 km
1000 to 3000 ft
1500m to 5 km
500 to 1000 ft
800 to 1500m
200 to 500 ft
< 800m
< 200 ft
Symbols :   Thunderstorms  Fog  Heavy snow  Heavy precipitations  Wind > 20 kt
SIGMETs :     Misc.  Thunderstorms  Icing  Turbulence  Mountain Waves  Volcanic Ashes







- Airport Elevation : 242 ft
- IATA code : DUB


EIDW - Dublin

CURRENT METAR :
  • 160230Z 05006KT 4000 -RADZ FEW002 BKN003 OVC005 12/12 Q1022 NOSIG

EXPIRED METARs :
  • 160200Z 07006KT 050V110 5000 -RADZ FEW001 BKN002 OVC003 12/12 Q1022 NOSIG
  • 160130Z 06005KT 030V090 6000 -RADZ BKN001 BKN002 OVC003 12/12 Q1022 NOSIG
  • 160100Z 08006KT 6000 -RADZ BKN001 OVC002 12/12 Q1022 NOSIG
  • 160030Z 06006KT 6000 -RADZ BKN001 BKN003 OVC013 12/12 Q1022 NOSIG
  • 160000Z 06007KT 6000 -RADZ SCT001 BKN002 BKN003 12/12 Q1022 NOSIG

TAF TAF EIDW
Valid from the 16 at 00:00 until the 17 at 00:00 UTC


152300Z 1600/1624 08008KT 5000 -RADZ SCT002 BKN005
TEMPO 1600/1607 2000 -DZ BR BKN002
PROB40
TEMPO 1600/1605 1200 DZ BKN001
BECMG 1602/1605 05008KT
BECMG 1607/1610 03009KT 9999 NSW BKN015
BECMG 1613/1615 32006KT
No reported NOTAMs for that airfield.



MET'MAP, your aeronautical weather chart ! - Copyright ORBIFLY December 2007 - Disclaimer

ORBIFLY MET'MAP TEAM :

Programming & Development : Alexandra Zaïnal
Concept & Development : Baudouin d'Aumeries
Co-Development & Prog : Marc-Olivier Méhu
Technical & hardware support : Manuel Goepfert

Contact : metmap@orbifly.com




SOURCES & CREDITS :

   NOAA